Pagina principale
METAR-TAF:

METAR-TAF

Aeroporti :

Aeroporto di Montpellier Méditerranée

Montpellier, Francia

latitudine: 43-35N, longitudine: 003-58E, altezza: 5 m

Osservazione

Il bollettino è stato emesso 21 minuti fa, alle 03:00 UTC
Vento 7 kt da ovest/nord-ovest
Temperature 14°C
Umidità 47%
Pressione 1026 hPa
Visibilità 10 km o più
nessuna nube inferiore a 1500 m e nessun cumulonembo

METAR: LFMT 240300Z AUTO 30007KT CAVOK 14/03 Q1026 NOSIG

Ora: 04:21 (03:21 UTC)

Previsione

Il bollettino è stato emesso 1 ora e 21 minuti fa, alle 02:00 UTC
Previsione valida dal 24 alle 03 UTC al 25 alle 03 UTC
Vento 10 kt da ovest/nord-ovest
Visibilità 10 km o più
nessuna nube inferiore a 1500 m e nessun cumulonembo
Temporaneamente
dal 24 alle 12 UTC al 24 alle 18 UTC
Vento 3 kt da direzioni variabili

TAF: LFMT 240200Z 2403/2503 30010KT CAVOK TEMPO 2412/2418 VRB03KT

Osservazioni e previsioni meteorologiche di più di 4000 aeroporti (messaggi METAR e TAF).

Le stazioni disponibili sono rappresentate dai dischi gialli e rossi sulla carta.

Puntare il mouse per vedere il nome della stazione.

Clicca sopra per visualizzare le osservazioni e previsioni meteorologiche.

Per cambiare la mappa : fare clic sui pulsanti verdi con una croce nera per ingrandire, il pulsante verde con un trattino per diminuire, o sulla freccia verde per le mappe adiacenti.


METAR-TAF: